Decoded Metar for LIBG (GROTTAGLIE in ITALY) (IATA:TAR) | Meteo·Mobile Aviation Weather
aviador You're here:

LIBG Decoded Metar

GROTTAGLIE in ITALY
Report Time2018-09-23 13:50:00
UTC Time2018-09-23 14:51:36
Flight Rules vfr VFR
Wind230° at 04 kt
W.Decomp.*RWY 17: 2.2 kt HW 3.4 kt RCW
W.Rank230° ranks 14
Current wind is below 230° avg. (6.1)
Visibility9999 m
Phenomena:N/A
Clouds:N/A
Expected CloudBase > 5,600 ft AGL from Temp-Dew spread
CeilingNone
Temp30°C (ISA +15)
Dew Point16°C (43% RH)
Heat Index30.1°C
QNH1017 hPa
Density Alt2,106 ft
Elevation226 ft
Report Wrong Elevation
Raw Report
LIBG 231350Z 23004KT 170V300 CAVOK 30/16 Q1017=

Extra information for LIBG:More info

Metar Taf Metar & Taf Last 4 Metars F.Rules Stats Wind Profile Meteogram Temp Stats Airport Information Weather charts Add Link Nearby VenuesMetar ALERT Operation Metar Decoded Social comments